Orbital elements of ARIANE 5 R/B
| Launched | 10 August 2006 |
| Flight ended | – |
| Launch site | Europe's Spaceport, Kourou, French Guiana |
| Owner | France |
| NORAD ID | 29275 |
| Date fetched |
Epoch osculation |
Inc. [°] |
Ecc. | RA asc node [hr] |
Arg Peri. [°] |
Mean anom [°] |
Mean motion [rev/day] |
Abs. mag |
| Date fetched |
Epoch osculation |
Inc. [°] |
Ecc. | RA asc node [hr] |
Arg Peri. [°] |
Mean anom [°] |
Mean motion [rev/day] |
Abs. mag |
| 2026 May 08 17:57 | 2026 May 05 03:01:22 | 5.9292 | 0.69820 | 7.5182 | 114.0792 | 330.7186 | 2.66925 | 3.743 |
| 2026 May 07 17:58 | 2026 May 05 03:01:22 | 5.9292 | 0.69820 | 7.5182 | 114.0792 | 330.7186 | 2.66925 | 3.743 |
| 2026 May 06 17:57 | 2026 May 05 03:01:22 | 5.9292 | 0.69820 | 7.5182 | 114.0792 | 330.7186 | 2.66925 | 3.743 |
| 2026 May 05 17:57 | 2026 May 05 03:01:22 | 5.9292 | 0.69820 | 7.5182 | 114.0792 | 330.7186 | 2.66925 | 3.743 |
| 2026 May 04 17:57 | 2026 Apr 29 03:14:18 | 5.9184 | 0.69820 | 7.7293 | 107.9406 | 330.7186 | 2.66925 | 3.743 |
| 2026 May 03 17:57 | 2026 Apr 29 03:14:18 | 5.9184 | 0.69820 | 7.7293 | 107.9406 | 330.7186 | 2.66925 | 3.743 |
| 2026 May 02 17:57 | 2026 Apr 29 03:14:18 | 5.9184 | 0.69820 | 7.7293 | 107.9406 | 330.7186 | 2.66925 | 3.743 |
| 2026 May 01 17:56 | 2026 Apr 29 03:14:18 | 5.9184 | 0.69820 | 7.7293 | 107.9406 | 330.7186 | 2.66925 | 3.743 |
| 2026 Apr 30 17:56 | 2026 Apr 29 03:14:18 | 5.9184 | 0.69820 | 7.7293 | 107.9406 | 330.7186 | 2.66925 | 3.743 |
| 2026 Apr 29 17:57 | 2026 Apr 23 21:22:26 | 5.9090 | 0.69816 | 7.9161 | 102.5451 | 330.7186 | 2.66925 | 3.743 |
| 2026 Apr 28 17:56 | 2026 Apr 23 21:22:26 | 5.9090 | 0.69816 | 7.9161 | 102.5451 | 330.7186 | 2.66925 | 3.743 |
| 2026 Apr 27 17:58 | 2026 Apr 23 21:22:26 | 5.9090 | 0.69816 | 7.9161 | 102.5451 | 330.7186 | 2.66925 | 3.743 |
| 2026 Apr 26 17:58 | 2026 Apr 23 21:22:26 | 5.9090 | 0.69816 | 7.9161 | 102.5451 | 330.7186 | 2.66925 | 3.743 |
| 2026 Apr 25 17:58 | 2026 Apr 23 21:22:26 | 5.9090 | 0.69816 | 7.9161 | 102.5451 | 330.7186 | 2.66925 | 3.743 |
| 2026 Apr 24 17:59 | 2026 Apr 23 21:22:26 | 5.9090 | 0.69816 | 7.9161 | 102.5451 | 330.7186 | 2.66925 | 3.743 |
| 2026 Apr 23 17:57 | 2026 Apr 19 09:27:42 | 5.9006 | 0.69816 | 8.0786 | 97.8803 | 330.7186 | 2.66925 | 3.743 |
| 2026 Apr 22 17:57 | 2026 Apr 19 09:27:42 | 5.9006 | 0.69816 | 8.0786 | 97.8803 | 330.7186 | 2.66925 | 3.743 |
| 2026 Apr 21 17:57 | 2026 Apr 19 09:27:42 | 5.9006 | 0.69816 | 8.0786 | 97.8803 | 330.7186 | 2.66925 | 3.743 |
| 2026 Apr 20 17:57 | 2026 Apr 19 09:27:42 | 5.9006 | 0.69816 | 8.0786 | 97.8803 | 330.7186 | 2.66925 | 3.743 |
| 2026 Apr 19 17:58 | 2026 Apr 19 09:27:42 | 5.9006 | 0.69816 | 8.0786 | 97.8803 | 330.7186 | 2.66925 | 3.743 |
| 2026 Apr 18 17:56 | 2026 Apr 12 15:32:15 | 5.8907 | 0.69804 | 8.3225 | 90.8798 | 330.7186 | 2.66925 | 3.743 |
| 2026 Apr 16 17:57 | 2026 Apr 12 15:32:15 | 5.8907 | 0.69804 | 8.3225 | 90.8798 | 330.7186 | 2.66925 | 3.743 |
| 2026 Apr 14 17:57 | 2026 Apr 12 15:32:15 | 5.8907 | 0.69804 | 8.3225 | 90.8798 | 330.7186 | 2.66925 | 3.743 |
| 2026 Apr 13 17:57 | 2026 Apr 12 15:32:15 | 5.8907 | 0.69804 | 8.3225 | 90.8798 | 330.7186 | 2.66925 | 3.743 |
| 2026 Apr 12 17:57 | 2026 Apr 08 03:33:40 | 5.8859 | 0.69801 | 8.4825 | 86.2616 | 330.7186 | 2.66925 | 3.743 |
| 2026 Apr 11 17:57 | 2026 Apr 08 03:33:40 | 5.8859 | 0.69801 | 8.4825 | 86.2616 | 330.7186 | 2.66925 | 3.743 |